Pagrindinis puslapis
METAR-TAF:

METAR-TAF

Oro uostai :

Lampangas, Tailandas

platuma: 18-17N, ilguma: 099-31E, Aukštis: 241 m

Dabartinis oras

Ataskaita buvo paskelbta 49 minutes, ne 04:00 UTC
Vėjas 7 kt iš Pietų/Pietvakarių
Temperatūra 29°C
Drėgmė 70%
Slėgis 1008 hPa
Matomumas 10 km arba daugiau
Išsisklaidę debesys ne aukštis 2500 ft
Su prošvaistėmis ne aukštis 10000 ft

METAR: VTCL 140400Z 20007KT 9999 SCT025 BKN100 29/23 Q1008 NOSIG

Laikas: 11:49 (04:49 UTC)

Prognozė

Ataskaita buvo paskelbta 5 valandos ir 49 minutes, ne 23:00 UTC
Prognozė galioja nuo 14 metu 00 UTC su 14 metu 24 UTC
Vėjas 5 kt iš Pietų
Matomumas 10 km arba daugiau
Išsisklaidę debesys ne aukštis 2500 ft
Laikinai
nuo 14 metu 06 UTC su 14 metu 12 UTC
Vėjas 15 kt iš Pietvakarių su gūsio iki 30 kt
Matomumas: 4000 m
Mažai debesys ne aukštis 2000 ft, Liūtiniai kamuoliniai debesys.
Su prošvaistėmis ne aukštis 2500 ft
perkūnija, lietus

TAF: VTCL 132300Z 1400/1424 18005KT 9999 SCT025 TEMPO 1406/1412 23015G30KT 4000 TSRA FEW020CB BKN025

Orai ataskaitas ir orų prognozės (METAR, TAF).

turimą stotys yra geltonos ir raudonos taškus žemėlapyje.

Perkelti pele per norėdami pamatyti stoties vardą.

Tada spustelėkite, norėdami matyti oro stebėjimo ir prognozės.

Norėdami pakeisti žemėlapį: spustelėkite ant žalios mygtukų su juodo kryžiaus žemyn,; žalią mygtuką su brūkšneliu, jei norite nutolinti; arba žalių rodyklių gretimoms žemėlapius.


METAR-TAF: